Time,TemperatureF,DewpointF,PressureIn,WindDirection,WindDirectionDegrees,WindSpeedMPH,WindSpeedGustMPH,Humidity,HourlyPrecipIn,Conditions,Clouds,dailyrainin,SoftwareType,DateUTC
2013-09-22 00:01:00,63.4,59.2,29.73,North,0,0.0,0.0,86,0.00,,---,0.00,VWS V14.01,2013-09-22 07:01:00,
2013-09-22 00:11:00,63.4,59.2,29.73,North,0,0.0,0.0,86,0.00,,---,0.00,VWS V14.01,2013-09-22 07:11:00,
2013-09-22 00:21:00,63.2,59.0,29.73,North,0,0.0,0.0,86,0.00,,---,0.00,VWS V14.01,2013-09-22 07:21:00,
2013-09-22 00:26:00,63.2,59.0,29.73,North,0,0.0,0.0,86,0.00,,---,0.00,VWS V14.01,2013-09-22 07:26:00,
2013-09-22 00:36:00,63.2,59.0,29.73,North,0,0.0,0.0,86,0.00,,---,0.00,VWS V14.01,2013-09-22 07:36:00,
2013-09-22 00:41:00,63.2,59.0,29.73,North,0,0.0,0.0,86,0.00,,---,0.00,VWS V14.01,2013-09-22 07:41:00,
2013-09-22 00:51:00,63.2,59.0,29.72,North,0,0.0,0.0,86,0.00,,---,0.00,VWS V14.01,2013-09-22 07:51:00,
2013-09-22 01:01:00,63.1,58.8,29.72,North,0,0.0,0.0,86,0.00,,---,0.00,VWS V14.01,2013-09-22 08:01:00,
2013-09-22 01:06:00,63.1,58.8,29.72,North,0,0.0,0.0,86,0.00,,---,0.00,VWS V14.01,2013-09-22 08:06:00,
2013-09-22 01:16:00,62.9,58.7,29.72,North,0,0.0,0.0,86,0.00,,---,0.00,VWS V14.01,2013-09-22 08:16:00,
2013-09-22 01:26:00,62.6,58.0,29.72,North,0,0.0,0.0,85,0.00,,---,0.00,VWS V14.01,2013-09-22 08:26:00,
2013-09-22 01:31:00,62.4,57.8,29.71,North,0,0.0,0.0,85,0.00,,---,0.00,VWS V14.01,2013-09-22 08:31:00,
2013-09-22 01:41:00,62.0,57.5,29.71,North,0,0.0,0.0,85,0.00,,---,0.00,VWS V14.01,2013-09-22 08:41:00,
2013-09-22 01:46:00,61.6,57.0,29.72,North,0,0.0,0.0,85,0.00,,---,0.00,VWS V14.01,2013-09-22 08:46:00,
2013-09-22 01:51:00,61.5,57.0,29.72,North,0,0.0,0.0,85,0.00,,---,0.00,VWS V14.01,2013-09-22 08:51:00,
2013-09-22 01:56:00,61.2,56.7,29.72,North,0,0.0,0.0,85,0.00,,---,0.00,VWS V14.01,2013-09-22 08:56:00,
2013-09-22 02:01:00,60.9,56.4,29.72,North,0,0.0,0.0,85,0.00,,---,0.00,VWS V14.01,2013-09-22 09:01:00,
2013-09-22 02:06:00,60.5,56.0,29.72,North,0,0.0,0.0,85,0.00,,---,0.00,VWS V14.01,2013-09-22 09:06:00,
2013-09-22 02:11:00,60.2,55.7,29.72,North,0,0.0,0.0,85,0.00,,---,0.00,VWS V14.01,2013-09-22 09:11:00,
2013-09-22 02:16:00,60.1,55.6,29.72,North,0,0.0,0.0,85,0.00,,---,0.00,VWS V14.01,2013-09-22 09:16:00,
2013-09-22 02:21:00,59.8,55.3,29.72,North,0,0.0,0.0,85,0.00,,---,0.00,VWS V14.01,2013-09-22 09:21:00,
2013-09-22 02:31:00,59.3,54.8,29.72,North,0,0.0,0.0,85,0.00,,---,0.00,VWS V14.01,2013-09-22 09:31:00,
2013-09-22 02:41:00,58.9,54.4,29.72,North,0,0.0,0.0,85,0.00,,---,0.00,VWS V14.01,2013-09-22 09:41:00,
2013-09-22 02:51:00,58.9,54.7,29.72,North,0,0.0,0.0,86,0.00,,---,0.00,VWS V14.01,2013-09-22 09:51:00,
2013-09-22 03:01:00,58.7,54.5,29.72,North,0,0.0,0.0,86,0.00,,---,0.00,VWS V14.01,2013-09-22 10:01:00,
2013-09-22 03:11:00,58.6,54.4,29.72,North,0,0.0,0.0,86,0.00,,---,0.00,VWS V14.01,2013-09-22 10:11:00,
2013-09-22 03:16:00,58.4,54.2,29.71,North,0,0.0,0.0,86,0.00,,---,0.00,VWS V14.01,2013-09-22 10:16:00,
2013-09-22 03:21:00,58.3,54.1,29.71,North,0,0.0,0.0,86,0.00,,---,0.00,VWS V14.01,2013-09-22 10:21:00,
2013-09-22 03:26:00,58.3,54.1,29.71,North,0,0.0,0.0,86,0.00,,---,0.00,VWS V14.01,2013-09-22 10:26:00,
2013-09-22 03:31:00,58.1,53.9,29.71,North,0,0.0,0.0,86,0.00,,---,0.00,VWS V14.01,2013-09-22 10:31:00,
2013-09-22 03:36:00,58.0,53.8,29.71,North,0,0.0,0.0,86,0.00,,---,0.00,VWS V14.01,2013-09-22 10:36:00,
2013-09-22 03:41:00,57.8,53.7,29.71,North,0,0.0,0.0,86,0.00,,---,0.00,VWS V14.01,2013-09-22 10:41:00,
2013-09-22 03:46:00,57.6,53.5,29.72,North,0,0.0,0.0,86,0.00,,---,0.00,VWS V14.01,2013-09-22 10:46:00,
2013-09-22 03:56:00,57.3,53.2,29.72,North,0,0.0,0.0,86,0.00,,---,0.00,VWS V14.01,2013-09-22 10:56:00,
2013-09-22 04:01:00,57.2,53.4,29.72,North,0,0.0,0.0,87,0.00,,---,0.00,VWS V14.01,2013-09-22 11:01:00,
2013-09-22 04:06:00,57.0,53.2,29.72,North,0,0.0,0.0,87,0.00,,---,0.00,VWS V14.01,2013-09-22 11:06:00,
2013-09-22 04:16:00,56.6,52.8,29.72,North,0,0.0,0.0,87,0.00,,---,0.00,VWS V14.01,2013-09-22 11:16:00,
2013-09-22 04:21:00,56.3,52.5,29.72,North,0,0.0,0.0,87,0.00,,---,0.00,VWS V14.01,2013-09-22 11:21:00,
2013-09-22 04:26:00,56.2,52.4,29.72,North,0,0.0,0.0,87,0.00,,---,0.00,VWS V14.01,2013-09-22 11:26:00,
2013-09-22 04:31:00,55.9,52.1,29.72,North,0,0.0,0.0,87,0.00,,---,0.00,VWS V14.01,2013-09-22 11:31:00,
2013-09-22 04:36:00,55.7,51.9,29.72,North,0,0.0,0.0,87,0.00,,---,0.00,VWS V14.01,2013-09-22 11:36:00,
2013-09-22 04:46:00,55.4,51.6,29.72,North,0,0.0,0.0,87,0.00,,---,0.00,VWS V14.01,2013-09-22 11:46:00,
2013-09-22 04:56:00,55.1,51.3,29.72,North,0,0.0,0.0,87,0.00,,---,0.00,VWS V14.01,2013-09-22 11:56:00,
2013-09-22 05:01:00,55.1,51.3,29.72,North,0,0.0,0.0,87,0.00,,---,0.00,VWS V14.01,2013-09-22 12:01:00,
2013-09-22 05:06:00,55.0,51.2,29.72,North,0,0.0,0.0,87,0.00,,---,0.00,VWS V14.01,2013-09-22 12:06:00,
2013-09-22 05:11:00,54.8,51.0,29.72,North,0,0.0,0.0,87,0.00,,---,0.00,VWS V14.01,2013-09-22 12:11:00,
2013-09-22 05:21:00,54.5,50.7,29.72,North,0,0.0,0.0,87,0.00,,---,0.00,VWS V14.01,2013-09-22 12:21:00,
2013-09-22 05:26:00,54.4,50.9,29.72,North,0,0.0,0.0,88,0.00,,---,0.00,VWS V14.01,2013-09-22 12:26:00,
2013-09-22 05:31:00,54.2,50.7,29.73,North,0,0.0,0.0,88,0.00,,---,0.00,VWS V14.01,2013-09-22 12:31:00,
2013-09-22 05:41:00,53.9,50.4,29.73,North,0,0.0,0.0,88,0.00,,---,0.00,VWS V14.01,2013-09-22 12:41:00,
2013-09-22 05:46:00,53.8,50.3,29.73,North,0,0.0,0.0,88,0.00,,---,0.00,VWS V14.01,2013-09-22 12:46:00,
2013-09-22 05:51:00,53.5,50.0,29.73,North,0,0.0,0.0,88,0.00,,---,0.00,VWS V14.01,2013-09-22 12:51:00,
2013-09-22 05:56:00,53.5,50.0,29.73,North,0,0.0,0.0,88,0.00,,---,0.00,VWS V14.01,2013-09-22 12:56:00,
2013-09-22 06:06:00,53.5,50.0,29.74,North,0,0.0,0.0,88,0.00,,---,0.00,VWS V14.01,2013-09-22 13:06:00,
2013-09-22 06:11:00,53.3,49.8,29.74,North,0,0.0,0.0,88,0.00,,---,0.00,VWS V14.01,2013-09-22 13:11:00,
2013-09-22 06:16:00,53.2,49.7,29.75,North,0,0.0,0.0,88,0.00,,---,0.00,VWS V14.01,2013-09-22 13:16:00,
2013-09-22 06:21:00,53.2,50.0,29.75,North,0,0.0,0.0,89,0.00,,---,0.00,VWS V14.01,2013-09-22 13:21:00,
2013-09-22 06:26:00,53.2,50.0,29.75,North,0,0.0,0.0,89,0.00,,---,0.00,VWS V14.01,2013-09-22 13:26:00,
2013-09-22 06:31:00,53.1,50.0,29.75,North,0,0.0,0.0,89,0.00,,---,0.00,VWS V14.01,2013-09-22 13:31:00,
2013-09-22 06:36:00,52.9,49.8,29.75,North,0,0.0,0.0,89,0.00,,---,0.00,VWS V14.01,2013-09-22 13:36:00,
2013-09-22 06:46:00,52.8,49.7,29.76,North,0,0.0,0.0,89,0.00,,---,0.00,VWS V14.01,2013-09-22 13:46:00,
2013-09-22 06:51:00,52.6,49.5,29.76,North,0,0.0,0.0,89,0.00,,---,0.00,VWS V14.01,2013-09-22 13:51:00,
2013-09-22 07:01:00,52.5,49.4,29.76,North,0,0.0,0.0,89,0.00,,---,0.00,VWS V14.01,2013-09-22 14:01:00,
2013-09-22 07:06:00,52.6,49.5,29.76,North,0,0.0,0.0,89,0.00,,---,0.00,VWS V14.01,2013-09-22 14:06:00,
2013-09-22 07:16:00,52.9,50.0,29.77,North,0,0.0,0.0,90,0.00,,---,0.00,VWS V14.01,2013-09-22 14:16:00,
2013-09-22 07:21:00,53.1,50.2,29.77,North,0,0.0,0.0,90,0.00,,---,0.00,VWS V14.01,2013-09-22 14:21:00,
2013-09-22 07:31:00,53.5,50.9,29.76,North,0,0.0,0.0,91,0.00,,---,0.00,VWS V14.01,2013-09-22 14:31:00,
2013-09-22 07:36:00,54.7,52.1,29.76,North,0,0.0,0.0,91,0.00,,---,0.00,VWS V14.01,2013-09-22 14:36:00,
2013-09-22 07:41:00,55.7,53.1,29.76,North,0,0.0,0.0,91,0.00,,---,0.00,VWS V14.01,2013-09-22 14:41:00,
2013-09-22 07:46:00,56.3,54.0,29.76,North,0,0.0,0.0,92,0.00,,---,0.00,VWS V14.01,2013-09-22 14:46:00,
2013-09-22 07:56:00,57.0,54.7,29.76,North,0,0.0,0.0,92,0.00,,---,0.00,VWS V14.01,2013-09-22 14:56:00,
2013-09-22 08:01:00,57.3,54.7,29.76,North,0,0.0,0.0,91,0.00,,---,0.00,VWS V14.01,2013-09-22 15:01:00,
2013-09-22 08:11:00,58.1,54.9,29.76,West,267,0.0,0.0,89,0.00,,---,0.00,VWS V14.01,2013-09-22 15:11:00,
2013-09-22 08:21:00,59.3,55.1,29.75,West,263,0.0,0.0,86,0.00,,---,0.00,VWS V14.01,2013-09-22 15:21:00,
2013-09-22 08:31:00,61.3,55.4,29.75,WSW,247,0.0,0.0,81,0.00,,---,0.00,VWS V14.01,2013-09-22 15:31:00,
2013-09-22 08:36:00,62.3,56.1,29.75,SSW,206,0.0,0.0,80,0.00,,---,0.00,VWS V14.01,2013-09-22 15:36:00,
2013-09-22 08:41:00,62.3,55.7,29.75,SSW,202,0.0,0.0,79,0.00,,---,0.00,VWS V14.01,2013-09-22 15:41:00,
2013-09-22 08:46:00,62.3,55.4,29.75,SSW,212,0.0,0.0,78,0.00,,---,0.00,VWS V14.01,2013-09-22 15:46:00,
2013-09-22 08:51:00,62.1,55.2,29.75,SSW,212,0.0,0.0,78,0.00,,---,0.00,VWS V14.01,2013-09-22 15:51:00,
2013-09-22 09:01:00,63.1,55.8,29.77,SSW,208,0.0,0.0,77,0.00,,---,0.00,VWS V14.01,2013-09-22 16:01:00,
2013-09-22 09:06:00,63.7,56.0,29.77,SSW,208,0.0,0.0,76,0.00,,---,0.00,VWS V14.01,2013-09-22 16:06:00,
2013-09-22 09:11:00,64.2,55.8,29.77,SW,229,0.0,0.0,74,0.00,,---,0.00,VWS V14.01,2013-09-22 16:11:00,
2013-09-22 09:16:00,65.2,56.0,29.76,NW,322,0.0,0.0,72,0.00,,---,0.00,VWS V14.01,2013-09-22 16:16:00,
2013-09-22 09:21:00,65.3,56.0,29.76,NNE,13,0.0,0.0,72,0.00,,---,0.00,VWS V14.01,2013-09-22 16:21:00,
2013-09-22 09:31:00,66.4,56.3,29.76,NNE,13,0.0,0.0,70,0.00,,---,0.00,VWS V14.01,2013-09-22 16:31:00,
2013-09-22 09:36:00,67.3,54.7,29.76,WSW,253,0.0,0.0,64,0.00,,---,0.00,VWS V14.01,2013-09-22 16:36:00,
2013-09-22 09:46:00,68.9,53.5,29.76,WSW,246,0.0,0.0,58,0.00,,---,0.00,VWS V14.01,2013-09-22 16:46:00,
2013-09-22 09:51:00,69.4,53.5,29.76,WSW,241,0.0,0.0,57,0.00,,---,0.00,VWS V14.01,2013-09-22 16:51:00,
2013-09-22 10:01:00,70.8,53.8,29.75,WSW,244,0.0,0.0,55,0.00,,---,0.00,VWS V14.01,2013-09-22 17:01:00,
2013-09-22 10:11:00,71.5,54.0,29.75,South,185,0.0,0.0,54,0.00,,---,0.00,VWS V14.01,2013-09-22 17:11:00,
2013-09-22 10:21:00,72.3,53.2,29.75,SW,230,0.0,0.0,51,0.00,,---,0.00,VWS V14.01,2013-09-22 17:21:00,
2013-09-22 10:26:00,72.7,51.9,29.75,SSW,206,0.0,0.0,48,0.00,,---,0.00,VWS V14.01,2013-09-22 17:26:00,
2013-09-22 10:31:00,73.0,51.6,29.75,SW,220,0.0,0.0,47,0.00,,---,0.00,VWS V14.01,2013-09-22 17:31:00,
2013-09-22 10:36:00,72.8,51.4,29.75,SW,226,0.0,0.0,47,0.00,,---,0.00,VWS V14.01,2013-09-22 17:36:00,
2013-09-22 10:41:00,73.9,52.4,29.75,SW,224,0.0,0.0,47,0.00,,---,0.00,VWS V14.01,2013-09-22 17:41:00,
2013-09-22 10:46:00,73.9,51.8,29.75,SW,227,0.0,0.0,46,0.00,,---,0.00,VWS V14.01,2013-09-22 17:46:00,
2013-09-22 10:51:00,73.9,49.4,29.75,South,191,0.0,0.0,42,0.00,,---,0.00,VWS V14.01,2013-09-22 17:51:00,
2013-09-22 10:56:00,74.2,49.7,29.75,SW,226,0.0,0.0,42,0.00,,---,0.00,VWS V14.01,2013-09-22 17:56:00,
2013-09-22 11:01:00,74.2,50.9,29.76,SW,226,0.0,0.0,44,0.00,,---,0.00,VWS V14.01,2013-09-22 18:01:00,
2013-09-22 11:11:00,74.9,50.9,29.76,SSE,152,0.0,0.0,43,0.00,,---,0.00,VWS V14.01,2013-09-22 18:11:00,
2013-09-22 11:16:00,74.2,50.3,29.76,South,191,0.0,0.0,43,0.00,,---,0.00,VWS V14.01,2013-09-22 18:16:00,
2013-09-22 11:26:00,75.3,52.5,29.76,SW,226,0.0,0.0,45,0.00,,---,0.00,VWS V14.01,2013-09-22 18:26:00,
2013-09-22 11:31:00,75.8,53.0,29.75,SE,133,0.0,0.0,45,0.00,,---,0.00,VWS V14.01,2013-09-22 18:31:00,
2013-09-22 11:41:00,76.5,53.0,29.75,South,172,0.0,0.0,44,0.00,,---,0.00,VWS V14.01,2013-09-22 18:41:00,
2013-09-22 11:46:00,76.0,50.6,29.75,SSW,198,0.0,0.0,41,0.00,,---,0.00,VWS V14.01,2013-09-22 18:46:00,
2013-09-22 11:51:00,75.4,48.8,29.75,SSE,167,0.0,0.0,39,0.00,,---,0.00,VWS V14.01,2013-09-22 18:51:00,
2013-09-22 11:56:00,76.7,49.9,29.75,SW,234,0.0,0.0,39,0.00,,---,0.00,VWS V14.01,2013-09-22 18:56:00,
2013-09-22 12:06:00,76.8,49.3,29.74,NE,34,0.0,0.0,38,0.00,,---,0.00,VWS V14.01,2013-09-22 19:06:00,
2013-09-22 12:11:00,77.0,50.2,29.74,NNE,16,0.0,0.0,39,0.00,,---,0.00,VWS V14.01,2013-09-22 19:11:00,
2013-09-22 12:16:00,77.7,51.5,29.74,WSW,239,0.0,0.0,40,0.00,,---,0.00,VWS V14.01,2013-09-22 19:16:00,
2013-09-22 12:21:00,78.1,50.5,29.74,SSW,192,0.0,0.0,38,0.00,,---,0.00,VWS V14.01,2013-09-22 19:21:00,
2013-09-22 12:26:00,79.0,49.8,29.74,SSW,212,0.0,0.0,36,0.00,,---,0.00,VWS V14.01,2013-09-22 19:26:00,
2013-09-22 12:36:00,78.3,51.3,29.73,SW,222,0.0,0.0,39,0.00,,---,0.00,VWS V14.01,2013-09-22 19:36:00,
2013-09-22 12:41:00,78.5,54.8,29.73,WSW,254,0.0,1.0,44,0.00,,---,0.00,VWS V14.01,2013-09-22 19:41:00,
2013-09-22 12:46:00,79.2,54.2,29.73,West,277,0.0,0.0,42,0.00,,---,0.00,VWS V14.01,2013-09-22 19:46:00,
2013-09-22 12:51:00,78.6,53.6,29.73,NW,323,0.0,1.0,42,0.00,,---,0.00,VWS V14.01,2013-09-22 19:51:00,
2013-09-22 12:56:00,78.6,53.0,29.73,SW,219,0.0,6.0,41,0.00,,---,0.00,VWS V14.01,2013-09-22 19:56:00,
2013-09-22 13:01:00,79.0,54.6,29.72,SW,234,0.0,1.0,43,0.00,,---,0.00,VWS V14.01,2013-09-22 20:01:00,
2013-09-22 13:06:00,78.8,54.4,29.72,West,278,0.0,11.0,43,0.00,,---,0.00,VWS V14.01,2013-09-22 20:06:00,
2013-09-22 13:11:00,78.5,52.9,29.72,WSW,246,0.0,7.0,41,0.00,,---,0.00,VWS V14.01,2013-09-22 20:11:00,
2013-09-22 13:16:00,78.8,52.5,29.72,WSW,246,0.0,7.0,40,0.00,,---,0.00,VWS V14.01,2013-09-22 20:16:00,
2013-09-22 13:21:00,79.2,53.5,29.72,SW,216,0.0,8.0,41,0.00,,---,0.00,VWS V14.01,2013-09-22 20:21:00,
2013-09-22 13:31:00,79.6,53.2,29.71,West,267,0.0,1.0,40,0.00,,---,0.00,VWS V14.01,2013-09-22 20:31:00,
2013-09-22 13:36:00,79.8,54.0,29.71,West,260,0.0,9.0,41,0.00,,---,0.00,VWS V14.01,2013-09-22 20:36:00,
2013-09-22 13:46:00,79.9,52.8,29.71,WNW,296,2.0,8.0,39,0.00,,---,0.00,VWS V14.01,2013-09-22 20:46:00,
2013-09-22 13:51:00,79.9,52.0,29.71,SW,232,0.0,7.0,38,0.00,,---,0.00,VWS V14.01,2013-09-22 20:51:00,
2013-09-22 14:01:00,80.3,52.4,29.70,WSW,244,0.0,11.0,38,0.00,,---,0.00,VWS V14.01,2013-09-22 21:01:00,
2013-09-22 14:06:00,80.3,51.7,29.70,WSW,250,5.0,5.0,37,0.00,,---,0.00,VWS V14.01,2013-09-22 21:06:00,
2013-09-22 14:11:00,79.9,50.6,29.70,SW,220,0.0,7.0,36,0.00,,---,0.00,VWS V14.01,2013-09-22 21:11:00,
2013-09-22 14:16:00,79.9,50.6,29.70,WSW,241,0.0,10.0,36,0.00,,---,0.00,VWS V14.01,2013-09-22 21:16:00,
2013-09-22 14:26:00,80.5,51.1,29.70,South,189,0.0,7.0,36,0.00,,---,0.00,VWS V14.01,2013-09-22 21:26:00,
2013-09-22 14:31:00,80.3,50.9,29.70,WSW,240,1.0,8.0,36,0.00,,---,0.00,VWS V14.01,2013-09-22 21:31:00,
2013-09-22 14:36:00,80.5,51.1,29.70,WNW,282,0.0,1.0,36,0.00,,---,0.00,VWS V14.01,2013-09-22 21:36:00,
2013-09-22 14:41:00,80.9,51.5,29.70,WSW,237,0.0,1.0,36,0.00,,---,0.00,VWS V14.01,2013-09-22 21:41:00,
2013-09-22 14:46:00,81.1,51.7,29.69,SW,223,0.0,6.0,36,0.00,,---,0.00,VWS V14.01,2013-09-22 21:46:00,
2013-09-22 14:51:00,81.1,50.9,29.69,WSW,240,0.0,6.0,35,0.00,,---,0.00,VWS V14.01,2013-09-22 21:51:00,
2013-09-22 14:56:00,81.4,51.2,29.69,West,265,0.0,1.0,35,0.00,,---,0.00,VWS V14.01,2013-09-22 21:56:00,
2013-09-22 15:01:00,81.2,51.0,29.69,SSW,206,0.0,7.0,35,0.00,,---,0.00,VWS V14.01,2013-09-22 22:01:00,
2013-09-22 15:11:00,81.4,51.9,29.69,West,263,0.0,1.0,36,0.00,,---,0.00,VWS V14.01,2013-09-22 22:11:00,
2013-09-22 15:16:00,81.4,51.2,29.69,WSW,256,0.0,1.0,35,0.00,,---,0.00,VWS V14.01,2013-09-22 22:16:00,
2013-09-22 15:26:00,81.2,51.0,29.69,West,268,0.0,7.0,35,0.00,,---,0.00,VWS V14.01,2013-09-22 22:26:00,
2013-09-22 15:31:00,81.1,51.7,29.68,SW,219,0.0,1.0,36,0.00,,---,0.00,VWS V14.01,2013-09-22 22:31:00,
2013-09-22 15:36:00,81.6,52.1,29.68,WSW,250,0.0,1.0,36,0.00,,---,0.00,VWS V14.01,2013-09-22 22:36:00,
2013-09-22 15:46:00,82.0,51.7,29.68,West,271,0.0,1.0,35,0.00,,---,0.00,VWS V14.01,2013-09-22 22:46:00,
2013-09-22 15:51:00,81.6,52.1,29.68,WSW,241,1.0,7.0,36,0.00,,---,0.00,VWS V14.01,2013-09-22 22:51:00,
2013-09-22 15:56:00,81.8,52.3,29.68,SW,222,0.0,7.0,36,0.00,,---,0.00,VWS V14.01,2013-09-22 22:56:00,
2013-09-22 16:01:00,81.2,51.7,29.68,WSW,254,0.0,7.0,36,0.00,,---,0.00,VWS V14.01,2013-09-22 23:01:00,
2013-09-22 16:06:00,80.7,50.5,29.68,WSW,258,0.0,7.0,35,0.00,,---,0.00,VWS V14.01,2013-09-22 23:06:00,
2013-09-22 16:16:00,80.7,50.5,29.68,NW,308,0.0,8.0,35,0.00,,---,0.00,VWS V14.01,2013-09-22 23:16:00,
2013-09-22 16:26:00,80.9,50.7,29.68,SW,230,0.0,1.0,35,0.00,,---,0.00,VWS V14.01,2013-09-22 23:26:00,
2013-09-22 16:31:00,80.3,50.9,29.68,WSW,240,0.0,1.0,36,0.00,,---,0.00,VWS V14.01,2013-09-22 23:31:00,
2013-09-22 16:36:00,80.7,51.3,29.68,SW,223,0.0,1.0,36,0.00,,---,0.00,VWS V14.01,2013-09-22 23:36:00,
2013-09-22 16:46:00,80.9,51.5,29.68,South,191,0.0,1.0,36,0.00,,---,0.00,VWS V14.01,2013-09-22 23:46:00,
2013-09-22 16:56:00,80.1,50.8,29.68,WSW,243,0.0,0.0,36,0.00,,---,0.00,VWS V14.01,2013-09-22 23:56:00,
2013-09-22 17:01:00,80.3,50.9,29.68,SSW,203,0.0,0.0,36,0.00,,---,0.00,VWS V14.01,2013-09-23 00:01:00,
2013-09-22 17:11:00,80.1,50.0,29.68,WSW,244,0.0,0.0,35,0.00,,---,0.00,VWS V14.01,2013-09-23 00:11:00,
2013-09-22 17:16:00,79.9,49.8,29.68,SW,220,0.0,1.0,35,0.00,,---,0.00,VWS V14.01,2013-09-23 00:16:00,
2013-09-22 17:26:00,79.6,50.3,29.68,West,261,0.0,0.0,36,0.00,,---,0.00,VWS V14.01,2013-09-23 00:26:00,
2013-09-22 17:31:00,79.6,50.3,29.67,SW,233,0.0,0.0,36,0.00,,---,0.00,VWS V14.01,2013-09-23 00:31:00,
2013-09-22 17:36:00,79.4,49.4,29.67,WSW,240,0.0,0.0,35,0.00,,---,0.00,VWS V14.01,2013-09-23 00:36:00,
2013-09-22 17:46:00,79.6,49.6,29.67,WSW,237,0.0,0.0,35,0.00,,---,0.00,VWS V14.01,2013-09-23 00:46:00,
2013-09-22 17:56:00,79.8,49.7,29.67,WSW,240,0.0,0.0,35,0.00,,---,0.00,VWS V14.01,2013-09-23 00:56:00,
2013-09-22 18:01:00,79.9,50.6,29.68,WSW,240,0.0,0.0,36,0.00,,---,0.00,VWS V14.01,2013-09-23 01:01:00,
2013-09-22 18:11:00,79.9,50.6,29.68,SW,233,0.0,0.0,36,0.00,,---,0.00,VWS V14.01,2013-09-23 01:11:00,
2013-09-22 18:16:00,79.8,50.5,29.69,SW,233,0.0,0.0,36,0.00,,---,0.00,VWS V14.01,2013-09-23 01:16:00,
2013-09-22 18:21:00,79.6,51.1,29.69,SW,232,0.0,0.0,37,0.00,,---,0.00,VWS V14.01,2013-09-23 01:21:00,
2013-09-22 18:26:00,79.2,51.4,29.69,SW,232,0.0,0.0,38,0.00,,---,0.00,VWS V14.01,2013-09-23 01:26:00,
2013-09-22 18:36:00,78.3,52.7,29.69,SW,232,0.0,0.0,41,0.00,,---,0.00,VWS V14.01,2013-09-23 01:36:00,
2013-09-22 18:46:00,77.0,52.8,29.70,SW,233,0.0,0.0,43,0.00,,---,0.00,VWS V14.01,2013-09-23 01:46:00,
2013-09-22 18:56:00,76.0,53.2,29.70,SW,236,0.0,0.0,45,0.00,,---,0.00,VWS V14.01,2013-09-23 01:56:00,
2013-09-22 19:01:00,75.3,53.1,29.70,SW,236,0.0,0.0,46,0.00,,---,0.00,VWS V14.01,2013-09-23 02:01:00,
2013-09-22 19:06:00,74.6,53.1,29.70,SW,236,0.0,0.0,47,0.00,,---,0.00,VWS V14.01,2013-09-23 02:06:00,
2013-09-22 19:16:00,73.0,52.7,29.70,SW,236,0.0,0.0,49,0.00,,---,0.00,VWS V14.01,2013-09-23 02:16:00,
2013-09-22 19:26:00,71.6,53.1,29.70,SW,236,0.0,0.0,52,0.00,,---,0.00,VWS V14.01,2013-09-23 02:26:00,
2013-09-22 19:36:00,70.4,54.0,29.70,SW,236,0.0,0.0,56,0.00,,---,0.00,VWS V14.01,2013-09-23 02:36:00,
2013-09-22 19:41:00,69.8,53.9,29.70,SW,236,0.0,0.0,57,0.00,,---,0.00,VWS V14.01,2013-09-23 02:41:00,
2013-09-22 19:46:00,69.3,53.4,29.71,SW,236,0.0,0.0,57,0.00,,---,0.00,VWS V14.01,2013-09-23 02:46:00,
2013-09-22 19:56:00,68.1,52.8,29.71,SW,236,0.0,0.0,58,0.00,,---,0.00,VWS V14.01,2013-09-23 02:56:00,
2013-09-22 20:01:00,67.6,52.3,29.72,SW,236,0.0,0.0,58,0.00,,---,0.00,VWS V14.01,2013-09-23 03:01:00,
2013-09-22 20:11:00,66.6,51.8,29.72,SW,236,0.0,0.0,59,0.00,,---,0.00,VWS V14.01,2013-09-23 03:11:00,
2013-09-22 20:16:00,66.1,51.4,29.72,SW,236,0.0,0.0,59,0.00,,---,0.00,VWS V14.01,2013-09-23 03:16:00,
2013-09-22 20:21:00,65.8,51.1,29.72,SW,236,0.0,0.0,59,0.00,,---,0.00,VWS V14.01,2013-09-23 03:21:00,
2013-09-22 20:31:00,65.2,51.4,29.73,SW,236,0.0,0.0,61,0.00,,---,0.00,VWS V14.01,2013-09-23 03:31:00,
2013-09-22 20:36:00,65.0,51.2,29.73,SW,236,0.0,0.0,61,0.00,,---,0.00,VWS V14.01,2013-09-23 03:36:00,
2013-09-22 20:41:00,64.7,51.8,29.73,SW,236,0.0,0.0,63,0.00,,---,0.00,VWS V14.01,2013-09-23 03:41:00,
2013-09-22 20:46:00,64.3,51.5,29.73,SW,236,0.0,0.0,63,0.00,,---,0.00,VWS V14.01,2013-09-23 03:46:00,
2013-09-22 20:51:00,64.2,51.8,29.73,SW,236,0.0,0.0,64,0.00,,---,0.00,VWS V14.01,2013-09-23 03:51:00,
2013-09-22 20:56:00,63.9,51.5,29.73,SW,236,0.0,0.0,64,0.00,,---,0.00,VWS V14.01,2013-09-23 03:56:00,
2013-09-22 21:01:00,63.7,51.3,29.74,SW,236,0.0,0.0,64,0.00,,---,0.00,VWS V14.01,2013-09-23 04:01:00,
2013-09-22 21:06:00,63.5,51.1,29.74,SW,236,0.0,0.0,64,0.00,,---,0.00,VWS V14.01,2013-09-23 04:06:00,
2013-09-22 21:11:00,63.4,51.0,29.74,SW,236,0.0,0.0,64,0.00,,---,0.00,VWS V14.01,2013-09-23 04:11:00,
2013-09-22 21:16:00,63.2,51.2,29.73,SW,236,0.0,0.0,65,0.00,,---,0.00,VWS V14.01,2013-09-23 04:16:00,
2013-09-22 21:21:00,62.9,51.0,29.73,SW,236,0.0,0.0,65,0.00,,---,0.00,VWS V14.01,2013-09-23 04:21:00,
2013-09-22 21:26:00,62.7,50.8,29.73,SW,236,0.0,0.0,65,0.00,,---,0.00,VWS V14.01,2013-09-23 04:26:00,
2013-09-22 21:31:00,62.4,50.5,29.74,SW,236,0.0,0.0,65,0.00,,---,0.00,VWS V14.01,2013-09-23 04:31:00,
2013-09-22 21:36:00,62.1,50.2,29.74,SW,236,0.0,0.0,65,0.00,,---,0.00,VWS V14.01,2013-09-23 04:36:00,
2013-09-22 21:41:00,62.0,50.5,29.74,SW,236,0.0,0.0,66,0.00,,---,0.00,VWS V14.01,2013-09-23 04:41:00,
2013-09-22 21:46:00,61.6,50.1,29.74,SW,236,0.0,0.0,66,0.00,,---,0.00,VWS V14.01,2013-09-23 04:46:00,
2013-09-22 21:51:00,61.5,50.0,29.74,SW,236,0.0,0.0,66,0.00,,---,0.00,VWS V14.01,2013-09-23 04:51:00,
2013-09-22 22:01:00,61.2,49.3,29.73,SW,236,0.0,0.0,65,0.00,,---,0.00,VWS V14.01,2013-09-23 05:01:00,
2013-09-22 22:06:00,61.0,49.2,29.73,SW,236,0.0,0.0,65,0.00,,---,0.00,VWS V14.01,2013-09-23 05:06:00,
2013-09-22 22:16:00,60.7,48.9,29.74,SW,236,0.0,0.0,65,0.00,,---,0.00,VWS V14.01,2013-09-23 05:16:00,
2013-09-22 22:26:00,60.4,48.2,29.74,SW,236,0.0,0.0,64,0.00,,---,0.00,VWS V14.01,2013-09-23 05:26:00,
2013-09-22 22:31:00,60.4,48.2,29.74,SW,236,0.0,0.0,64,0.00,,---,0.00,VWS V14.01,2013-09-23 05:31:00,
2013-09-22 22:36:00,60.4,48.2,29.74,SW,236,0.0,0.0,64,0.00,,---,0.00,VWS V14.01,2013-09-23 05:36:00,
2013-09-22 22:46:00,60.1,48.3,29.74,SW,236,0.0,0.0,65,0.00,,---,0.00,VWS V14.01,2013-09-23 05:46:00,
2013-09-22 22:51:00,60.1,48.3,29.74,SW,236,0.0,0.0,65,0.00,,---,0.00,VWS V14.01,2013-09-23 05:51:00,
2013-09-22 23:01:00,59.8,48.0,29.75,SW,236,0.0,0.0,65,0.00,,---,0.00,VWS V14.01,2013-09-23 06:01:00,
2013-09-22 23:06:00,59.6,47.8,29.75,SW,236,0.0,0.0,65,0.00,,---,0.00,VWS V14.01,2013-09-23 06:06:00,
2013-09-22 23:16:00,59.3,47.5,29.74,SW,236,0.0,0.0,65,0.00,,---,0.00,VWS V14.01,2013-09-23 06:16:00,
2013-09-22 23:21:00,59.2,47.5,29.74,SW,236,0.0,0.0,65,0.00,,---,0.00,VWS V14.01,2013-09-23 06:21:00,
2013-09-22 23:26:00,58.9,47.6,29.74,SW,236,0.0,0.0,66,0.00,,---,0.00,VWS V14.01,2013-09-23 06:26:00,
2013-09-22 23:36:00,58.6,47.3,29.74,SW,236,0.0,0.0,66,0.00,,---,0.00,VWS V14.01,2013-09-23 06:36:00,
2013-09-22 23:41:00,58.3,47.4,29.74,SW,236,0.0,0.0,67,0.00,,---,0.00,VWS V14.01,2013-09-23 06:41:00,
2013-09-22 23:51:00,58.0,46.7,29.73,SW,236,0.0,0.0,66,0.00,,---,0.00,VWS V14.01,2013-09-23 06:51:00,
2013-09-22 23:56:00,57.6,45.9,29.73,SW,236,0.0,0.0,65,0.00,,---,0.00,VWS V14.01,2013-09-23 06:56:00,